createdAt,value
2023-04-02T00:00:10.652Z,99358.00
2023-04-02T00:03:22.097Z,99367.22
2023-04-02T00:06:33.029Z,99370.81
2023-04-02T00:09:37.966Z,99366.53
2023-04-02T00:12:40.642Z,99376.03
2023-04-02T00:15:46.432Z,99374.31
2023-04-02T00:18:53.802Z,99360.41
2023-04-02T00:21:57.882Z,99361.06
2023-04-02T00:25:07.817Z,99364.34
2023-04-02T00:28:15.644Z,99366.66
2023-04-02T00:31:20.359Z,99356.59
2023-04-02T00:34:22.762Z,99382.19
2023-04-02T00:37:28.677Z,99388.16
2023-04-02T00:40:31.991Z,99381.53
2023-04-02T00:43:37.082Z,99383.97
2023-04-02T00:46:49.581Z,99375.06
2023-04-02T00:49:59.781Z,99368.09
2023-04-02T00:53:10.432Z,99382.16
2023-04-02T00:56:36.862Z,99381.72
2023-04-02T00:59:51.023Z,99382.59
2023-04-02T01:03:16.473Z,99381.13
2023-04-02T01:06:20.566Z,99384.19
2023-04-02T01:09:37.715Z,99386.78
2023-04-02T01:13:08.204Z,99383.16
2023-04-02T01:16:38.992Z,99390.50
2023-04-02T01:19:55.046Z,99391.16
2023-04-02T01:23:00.631Z,99388.59
2023-04-02T01:26:21.589Z,99387.16
2023-04-02T01:29:32.458Z,99396.41
2023-04-02T01:32:36.203Z,99383.56
2023-04-02T01:35:46.779Z,99392.03
2023-04-02T01:39:02.252Z,99398.16
2023-04-02T01:42:36.304Z,99389.66
2023-04-02T01:45:38.795Z,99397.31
2023-04-02T01:48:42.558Z,99402.97
2023-04-02T01:51:50.852Z,99388.47
2023-04-02T01:54:54.509Z,99402.50
2023-04-02T01:57:59.318Z,99407.69
2023-04-02T02:01:09.831Z,99396.16
2023-04-02T02:04:15.446Z,99397.63
2023-04-02T02:07:20.841Z,99404.16
2023-04-02T02:10:39.154Z,99415.34
2023-04-02T02:13:53.191Z,99402.16
2023-04-02T02:17:00.135Z,99409.06
2023-04-02T02:20:10.877Z,99418.00
2023-04-02T02:23:14.429Z,99394.94
2023-04-02T02:26:18.941Z,99421.53
2023-04-02T02:29:26.378Z,99402.78
2023-04-02T02:32:32.688Z,99406.81
2023-04-02T02:36:18.457Z,99415.63
2023-04-02T02:39:34.848Z,99423.53
2023-04-02T02:42:48.947Z,99408.91
2023-04-02T02:45:54.102Z,99410.75
2023-04-02T02:48:58.683Z,99428.47
2023-04-02T02:52:13.503Z,99411.81
2023-04-02T02:55:32.625Z,99421.91
2023-04-02T02:58:42.753Z,99417.94
2023-04-02T03:02:00.750Z,99412.97
2023-04-02T03:05:04.956Z,99413.84
2023-04-02T03:08:13.694Z,99408.72
2023-04-02T03:11:29.184Z,99413.44
2023-04-02T03:14:38.045Z,99412.97
2023-04-02T03:18:13.397Z,99412.63
2023-04-02T03:21:31.942Z,99407.75
2023-04-02T03:24:46.688Z,99423.44
2023-04-02T03:27:54.286Z,99423.97
2023-04-02T03:31:06.076Z,99423.75
2023-04-02T03:34:18.589Z,99422.72
2023-04-02T03:37:26.261Z,99419.06
2023-04-02T03:40:34.797Z,99429.03
2023-04-02T03:43:43.528Z,99417.34
2023-04-02T03:46:57.392Z,99435.22
2023-04-02T03:50:26.797Z,99440.03
2023-04-02T03:53:32.667Z,99432.09
2023-04-02T03:56:40.412Z,99434.16
2023-04-02T03:59:59.294Z,99444.94
2023-04-02T04:03:12.432Z,99441.50
2023-04-02T04:06:28.185Z,99433.56
2023-04-02T04:09:39.374Z,99449.34
2023-04-02T04:12:46.298Z,99436.03
2023-04-02T04:16:00.470Z,99449.88
2023-04-02T04:19:55.047Z,99456.47
2023-04-02T04:23:11.134Z,99460.09
2023-04-02T04:26:26.211Z,99457.34
2023-04-02T04:29:45.522Z,99462.63
2023-04-02T04:32:58.614Z,99461.31
2023-04-02T04:36:03.825Z,99463.69
2023-04-02T04:39:23.496Z,99445.81
2023-04-02T04:42:31.878Z,99470.88
2023-04-02T04:45:44.995Z,99462.09
2023-04-02T04:49:21.571Z,99463.53
2023-04-02T04:52:36.643Z,99466.28
2023-04-02T04:55:44.435Z,99461.72
2023-04-02T04:58:50.902Z,99485.16
2023-04-02T05:02:02.212Z,99471.75
2023-04-02T05:05:16.893Z,99473.69
2023-04-02T05:08:30.551Z,99480.84
2023-04-02T05:11:42.941Z,99481.53
2023-04-02T05:14:58.390Z,99484.28
2023-04-02T05:18:37.782Z,99468.09
2023-04-02T05:21:44.034Z,99494.97
2023-04-02T05:24:50.659Z,99498.84
2023-04-02T05:27:59.229Z,99497.97
2023-04-02T05:31:08.491Z,99494.06
2023-04-02T05:34:13.277Z,99503.44
2023-04-02T05:37:29.485Z,99507.34
2023-04-02T05:40:42.365Z,99496.66
2023-04-02T05:43:48.318Z,99507.19
2023-04-02T05:47:06.739Z,99504.50
2023-04-02T05:50:12.482Z,99514.50
2023-04-02T05:53:49.932Z,99511.69
2023-04-02T05:56:57.995Z,99515.19
2023-04-02T06:00:07.222Z,99509.09
2023-04-02T06:03:41.832Z,99511.72
2023-04-02T06:06:50.648Z,99512.03
2023-04-02T06:10:10.249Z,99519.69
2023-04-02T06:13:19.747Z,99527.63
2023-04-02T06:16:27.075Z,99524.13
2023-04-02T06:19:35.802Z,99524.59
2023-04-02T06:22:41.883Z,99525.81
2023-04-02T06:26:06.347Z,99530.53
2023-04-02T06:29:31.625Z,99523.19
2023-04-02T06:32:34.878Z,99525.41
2023-04-02T06:35:41.391Z,99545.66
2023-04-02T06:38:44.596Z,99529.78
2023-04-02T06:41:58.772Z,99533.16
2023-04-02T06:45:25.667Z,99555.59
2023-04-02T06:49:14.124Z,99541.00
2023-04-02T06:52:26.141Z,99556.28
2023-04-02T06:55:32.046Z,99558.94
2023-04-02T06:58:35.162Z,99549.81
2023-04-02T07:01:45.288Z,99550.88
2023-04-02T07:04:48.821Z,99540.13
2023-04-02T07:07:53.314Z,99556.25
2023-04-02T07:10:56.893Z,99546.22
2023-04-02T07:14:00.706Z,99560.59
2023-04-02T07:17:03.669Z,99551.88
2023-04-02T07:20:06.929Z,99569.09
2023-04-02T07:23:10.413Z,99569.13
2023-04-02T07:26:16.179Z,99546.91
2023-04-02T07:29:19.954Z,99550.44
2023-04-02T07:32:22.381Z,99569.97
2023-04-02T07:35:24.903Z,99565.09
2023-04-02T07:38:27.594Z,99550.28
2023-04-02T07:41:30.178Z,99569.09
2023-04-02T07:44:32.657Z,99564.88
2023-04-02T07:47:35.439Z,99581.63
2023-04-02T07:50:38.508Z,99580.97
2023-04-02T07:53:41.878Z,99586.00
2023-04-02T07:56:44.429Z,99596.38
2023-04-02T07:59:47.472Z,99596.31
2023-04-02T08:02:51.237Z,99587.78
2023-04-02T08:05:56.315Z,99598.94
2023-04-02T08:08:59.429Z,99601.22
2023-04-02T08:12:02.197Z,99580.25
2023-04-02T08:15:08.940Z,99599.66
2023-04-02T08:18:12.215Z,99606.91
2023-04-02T08:21:16.554Z,99595.41
2023-04-02T08:24:19.962Z,99604.66
2023-04-02T08:27:24.022Z,99595.75
2023-04-02T08:30:27.145Z,99587.47
2023-04-02T08:33:29.658Z,99593.25
2023-04-02T08:36:38.398Z,99597.66
2023-04-02T08:39:41.361Z,99608.47
2023-04-02T08:43:16.145Z,99613.50
2023-04-02T08:46:40.913Z,99613.31
2023-04-02T08:49:52.478Z,99622.84
2023-04-02T08:52:55.190Z,99618.09
2023-04-02T08:56:17.993Z,99594.84
2023-04-02T08:59:36.070Z,99623.13
2023-04-02T09:02:43.509Z,99614.00
2023-04-02T09:05:47.842Z,99622.69
2023-04-02T09:08:51.970Z,99607.84
2023-04-02T09:12:04.437Z,99641.19
2023-04-02T09:15:26.048Z,99629.13
2023-04-02T09:18:32.134Z,99619.13
2023-04-02T09:21:40.863Z,99632.53
2023-04-02T09:24:43.461Z,99624.38
2023-04-02T09:27:49.967Z,99635.16
2023-04-02T09:31:01.652Z,99641.72
2023-04-02T09:34:31.320Z,99646.72
2023-04-02T09:37:34.163Z,99645.66
2023-04-02T09:40:51.484Z,99639.38
2023-04-02T09:44:22.241Z,99639.09
2023-04-02T09:47:27.336Z,99640.41
2023-04-02T09:50:33.838Z,99643.03
2023-04-02T09:53:41.836Z,99637.53
2023-04-02T09:57:03.465Z,99642.25
2023-04-02T10:00:21.860Z,99655.69
2023-04-02T10:03:33.247Z,99654.34
2023-04-02T10:06:35.725Z,99655.00
2023-04-02T10:09:38.937Z,99653.94
2023-04-02T10:12:43.596Z,99652.44
2023-04-02T10:15:57.312Z,99656.09
2023-04-02T10:19:17.843Z,99658.03
2023-04-02T10:22:22.905Z,99654.88
2023-04-02T10:25:30.314Z,99658.00
2023-04-02T10:28:44.821Z,99668.56
2023-04-02T10:31:53.399Z,99663.75
2023-04-02T10:35:19.537Z,99642.53
2023-04-02T10:38:28.644Z,99651.91
2023-04-02T10:42:01.916Z,99653.38
2023-04-02T10:45:38.654Z,99654.50
2023-04-02T10:48:52.568Z,99648.53
2023-04-02T10:52:00.698Z,99653.84
2023-04-02T10:55:15.077Z,99649.41
2023-04-02T10:58:24.298Z,99663.91
2023-04-02T11:01:29.807Z,99642.44
2023-04-02T11:04:42.511Z,99645.59
2023-04-02T11:08:14.022Z,99645.19
2023-04-02T11:11:21.497Z,99646.16
2023-04-02T11:14:27.694Z,99633.00
2023-04-02T11:17:30.401Z,99653.97
2023-04-02T11:20:48.787Z,99662.34
2023-04-02T11:24:00.936Z,99644.16
2023-04-02T11:27:12.494Z,99649.34
2023-04-02T11:30:27.698Z,99648.66
2023-04-02T11:33:46.065Z,99647.41
2023-04-02T11:36:52.957Z,99631.91
2023-04-02T11:39:58.273Z,99627.81
2023-04-02T11:43:32.495Z,99630.91
2023-04-02T11:46:42.866Z,99629.19
2023-04-02T11:50:06.233Z,99624.09
2023-04-02T11:53:11.746Z,99635.63
2023-04-02T11:56:34.142Z,99614.72
2023-04-02T11:59:49.914Z,99617.44
2023-04-02T12:03:13.447Z,99626.91
2023-04-02T12:06:34.536Z,99622.47
2023-04-02T12:09:56.892Z,99621.56
2023-04-02T12:12:59.822Z,99611.78
2023-04-02T12:16:03.368Z,99606.69
2023-04-02T12:19:09.356Z,99616.59
2023-04-02T12:22:28.595Z,99606.53
2023-04-02T12:25:33.900Z,99604.44
2023-04-02T12:28:38.271Z,99609.66
2023-04-02T12:31:47.991Z,99605.75
2023-04-02T12:34:53.208Z,99626.53
2023-04-02T12:37:55.675Z,99605.66
2023-04-02T12:41:06.674Z,99611.78
2023-04-02T12:44:18.473Z,99597.16
2023-04-02T12:47:21.163Z,99609.63
2023-04-02T12:50:23.892Z,99596.28
2023-04-02T12:53:34.879Z,99603.50
2023-04-02T12:56:37.425Z,99602.72
2023-04-02T12:59:40.949Z,99596.84
2023-04-02T13:02:45.605Z,99591.88
2023-04-02T13:05:52.641Z,99601.19
2023-04-02T13:08:55.601Z,99596.34
2023-04-02T13:11:58.814Z,99582.53
2023-04-02T13:15:04.171Z,99583.50
2023-04-02T13:18:12.611Z,99590.97
2023-04-02T13:21:15.439Z,99593.78
2023-04-02T13:24:23.824Z,99599.75
2023-04-02T13:27:26.224Z,99587.97
2023-04-02T13:30:29.484Z,99594.97
2023-04-02T13:33:32.413Z,99604.19
2023-04-02T13:36:35.040Z,99606.75
2023-04-02T13:39:37.407Z,99591.03
2023-04-02T13:42:42.110Z,99600.03
2023-04-02T13:45:50.604Z,99589.03
2023-04-02T13:48:54.840Z,99584.50
2023-04-02T13:52:05.426Z,99590.19
2023-04-02T13:55:10.313Z,99584.47
2023-04-02T13:58:13.220Z,99585.94
2023-04-02T14:01:16.095Z,99599.88
2023-04-02T14:04:24.556Z,99580.50
2023-04-02T14:07:59.458Z,99589.72
2023-04-02T14:11:27.107Z,99584.69
2023-04-02T14:14:32.772Z,99595.75
2023-04-02T14:17:47.628Z,99594.06
2023-04-02T14:21:17.405Z,99601.38
2023-04-02T14:24:58.551Z,99616.34
2023-04-02T14:28:11.912Z,99614.66
2023-04-02T14:31:43.492Z,99646.31
2023-04-02T14:34:54.775Z,99642.69
2023-04-02T14:38:40.597Z,99662.13
2023-04-02T14:41:52.504Z,99667.63
2023-04-02T14:45:03.972Z,99656.13
2023-04-02T14:48:38.575Z,99677.19
2023-04-02T14:52:04.528Z,99683.22
2023-04-02T14:55:26.385Z,99667.75
2023-04-02T14:58:34.541Z,99684.28
2023-04-02T15:01:43.347Z,99682.31
2023-04-02T15:05:01.433Z,99701.19
2023-04-02T15:08:39.431Z,99708.56
2023-04-02T15:11:48.876Z,99703.06
2023-04-02T15:14:59.198Z,99692.31
2023-04-02T15:18:02.537Z,99697.47
2023-04-02T15:21:20.240Z,99701.53
2023-04-02T15:24:37.263Z,99696.44
2023-04-02T15:27:39.711Z,99697.06
2023-04-02T15:30:44.276Z,99708.31
2023-04-02T15:34:01.765Z,99695.56
2023-04-02T15:37:12.742Z,99703.78
2023-04-02T15:40:35.300Z,99710.91
2023-04-02T15:43:39.095Z,99711.19
2023-04-02T15:46:55.505Z,99701.47
2023-04-02T15:50:14.086Z,99711.13
2023-04-02T15:53:34.925Z,99704.44
2023-04-02T15:57:09.422Z,99711.25
2023-04-02T16:00:33.029Z,99722.16
2023-04-02T16:03:49.557Z,99728.28
2023-04-02T16:07:17.051Z,99737.81
2023-04-02T16:10:40.218Z,99737.88
2023-04-02T16:13:45.088Z,99737.50
2023-04-02T16:16:50.481Z,99734.81
2023-04-02T16:20:02.452Z,99733.06
2023-04-02T16:23:20.613Z,99741.34
2023-04-02T16:26:47.153Z,99750.78
2023-04-02T16:30:20.234Z,99746.66
2023-04-02T16:33:46.078Z,99756.56
2023-04-02T16:37:19.393Z,99755.78
2023-04-02T16:41:04.789Z,99767.91
2023-04-02T16:44:28.768Z,99760.00
2023-04-02T16:47:45.349Z,99770.28
2023-04-02T16:51:09.150Z,99775.78
2023-04-02T16:54:20.268Z,99774.97
2023-04-02T16:57:56.605Z,99769.59
2023-04-02T17:01:16.308Z,99762.19
2023-04-02T17:04:46.562Z,99780.94
2023-04-02T17:08:02.997Z,99766.09
2023-04-02T17:11:12.612Z,99772.56
2023-04-02T17:14:35.020Z,99789.50
2023-04-02T17:17:37.877Z,99770.69
2023-04-02T17:20:41.446Z,99782.94
2023-04-02T17:24:06.674Z,99799.94
2023-04-02T17:27:25.623Z,99799.97
2023-04-02T17:30:31.207Z,99807.25
2023-04-02T17:33:34.140Z,99811.09
2023-04-02T17:36:48.435Z,99826.06
2023-04-02T17:40:18.635Z,99834.28
2023-04-02T17:43:40.363Z,99823.72
2023-04-02T17:46:57.180Z,99816.72
2023-04-02T17:50:48.627Z,99840.69
2023-04-02T17:54:10.492Z,99856.44
2023-04-02T17:57:52.255Z,99852.31
2023-04-02T18:01:06.944Z,99858.81
2023-04-02T18:04:27.990Z,99865.34
2023-04-02T18:08:00.456Z,99855.16
2023-04-02T18:11:02.934Z,99878.03
2023-04-02T18:14:18.076Z,99873.72
2023-04-02T18:17:33.214Z,99889.47
2023-04-02T18:21:14.790Z,99901.06
2023-04-02T18:24:46.499Z,99892.91
2023-04-02T18:28:14.952Z,99921.34
2023-04-02T18:31:49.390Z,99924.06
2023-04-02T18:35:22.568Z,99910.50
2023-04-02T18:38:40.546Z,99939.91
2023-04-02T18:41:52.684Z,99948.34
2023-04-02T18:45:19.051Z,99947.03
2023-04-02T18:48:36.922Z,99946.91
2023-04-02T18:51:40.367Z,99958.13
2023-04-02T18:54:55.511Z,99971.50
2023-04-02T18:58:04.064Z,99973.00
2023-04-02T19:01:11.575Z,99965.19
2023-04-02T19:04:28.644Z,99979.69
2023-04-02T19:07:36.786Z,99984.38
2023-04-02T19:10:43.965Z,99999.56
2023-04-02T19:13:49.004Z,99987.34
2023-04-02T19:17:09.733Z,100004.25
2023-04-02T19:20:26.944Z,100010.91
2023-04-02T19:23:38.501Z,100001.56
2023-04-02T19:27:27.211Z,100015.63
2023-04-02T19:31:01.225Z,100022.03
2023-04-02T19:34:34.207Z,100014.03
2023-04-02T19:37:41.973Z,100009.91
2023-04-02T19:41:07.008Z,100028.59
2023-04-02T19:44:13.466Z,100037.81
2023-04-02T19:47:18.630Z,100023.56
2023-04-02T19:50:21.593Z,100025.75
2023-04-02T19:53:24.426Z,100033.81
2023-04-02T19:56:28.183Z,100043.31
2023-04-02T19:59:31.077Z,100037.31
2023-04-02T20:02:34.012Z,100044.44
2023-04-02T20:05:37.095Z,100058.44
2023-04-02T20:08:40.192Z,100053.06
2023-04-02T20:11:43.014Z,100065.25
2023-04-02T20:14:45.727Z,100076.38
2023-04-02T20:17:48.400Z,100063.25
2023-04-02T20:20:51.023Z,100082.38
2023-04-02T20:23:54.455Z,100092.25
2023-04-02T20:26:56.917Z,100102.66
2023-04-02T20:29:59.720Z,100082.34
2023-04-02T20:33:02.436Z,100086.22
2023-04-02T20:36:08.545Z,100086.22
2023-04-02T20:39:17.528Z,100102.84
2023-04-02T20:42:20.069Z,100111.47
2023-04-02T20:45:22.727Z,100112.66
2023-04-02T20:48:30.907Z,100107.28
2023-04-02T20:51:34.440Z,100113.16
2023-04-02T20:54:37.042Z,100116.47
2023-04-02T20:57:39.672Z,100130.75
2023-04-02T21:00:42.388Z,100149.72
2023-04-02T21:03:45.407Z,100136.97
2023-04-02T21:06:48.675Z,100132.91
2023-04-02T21:09:54.227Z,100149.25
2023-04-02T21:12:56.679Z,100154.91
2023-04-02T21:15:59.973Z,100160.06
2023-04-02T21:19:05.960Z,100174.50
2023-04-02T21:22:08.600Z,100177.13
2023-04-02T21:25:11.133Z,100159.34
2023-04-02T21:28:13.594Z,100190.50
2023-04-02T21:31:19.363Z,100181.97
2023-04-02T21:34:21.741Z,100163.81
2023-04-02T21:37:24.218Z,100190.16
2023-04-02T21:40:27.059Z,100200.34
2023-04-02T21:43:29.432Z,100186.97
2023-04-02T21:46:36.083Z,100202.50
2023-04-02T21:49:38.879Z,100204.31
2023-04-02T21:52:41.490Z,100194.53
2023-04-02T21:55:44.055Z,100219.53
2023-04-02T21:58:47.645Z,100221.69
2023-04-02T22:01:52.070Z,100213.50
2023-04-02T22:04:54.589Z,100222.50
2023-04-02T22:07:57.059Z,100214.91
2023-04-02T22:11:05.441Z,100223.31
2023-04-02T22:14:08.574Z,100217.94
2023-04-02T22:17:11.046Z,100225.72
2023-04-02T22:20:13.752Z,100230.06
2023-04-02T22:23:17.785Z,100236.22
2023-04-02T22:26:23.169Z,100228.44
2023-04-02T22:29:25.853Z,100240.03
2023-04-02T22:32:28.377Z,100226.03
2023-04-02T22:35:31.059Z,100240.97
2023-04-02T22:38:34.852Z,100239.59
2023-04-02T22:41:37.484Z,100225.25
2023-04-02T22:44:40.270Z,100247.59
2023-04-02T22:47:42.819Z,100237.09
2023-04-02T22:50:50.479Z,100236.06
2023-04-02T22:53:54.841Z,100263.59
2023-04-02T22:56:57.336Z,100264.72
2023-04-02T23:00:00.164Z,100262.03
2023-04-02T23:03:03.169Z,100263.53
2023-04-02T23:06:08.855Z,100241.03
2023-04-02T23:09:11.434Z,100273.31
2023-04-02T23:12:13.976Z,100255.91
2023-04-02T23:15:17.133Z,100258.06
2023-04-02T23:18:19.612Z,100271.63
2023-04-02T23:21:22.782Z,100278.47
2023-04-02T23:24:25.265Z,100285.13
2023-04-02T23:27:27.811Z,100277.34
2023-04-02T23:30:30.494Z,100276.47
2023-04-02T23:33:33.556Z,100267.25
2023-04-02T23:36:36.325Z,100281.34
2023-04-02T23:39:39.093Z,100271.66
2023-04-02T23:42:41.777Z,100260.69
2023-04-02T23:45:50.671Z,100288.97
2023-04-02T23:48:54.549Z,100282.06
2023-04-02T23:51:58.310Z,100288.56
2023-04-02T23:55:00.742Z,100285.16
2023-04-02T23:58:04.076Z,100288.56
